Time;durP1;ratioP1;P1;durP2;ratioP2;P2;SDS_P1;SDS_P2;PMS_P1;PMS_P2;Temp;Humidity;BMP_temperature;BMP_pressure;BME280_temperature;BME280_humidity;BME280_pressure;Samples;Min_cycle;Max_cycle;Signal;HPM_P1;HPM_P2
2022/04/11 00:01:29;;;;;;;;;;;3.30;99.90;;;;;;5020430;28;19931;-76
2022/04/11 00:03:54;;;;;;;;;;;3.30;99.90;;;;;;5015364;28;19931;-75
2022/04/11 00:06:20;;;;;;;;;;;3.20;99.90;;;;;;5022748;28;20004;-75
2022/04/11 00:08:46;;;;;;;;;;;3.10;99.90;;;;;;5033878;28;19924;-76
2022/04/11 00:11:11;;;;;;;;;;;3.00;99.90;;;;;;5019482;28;19971;-75
2022/04/11 00:13:37;;;;;;;;;;;3.10;99.90;;;;;;5036885;28;19931;-75
2022/04/11 00:16:03;;;;;;;;;;;3.20;99.90;;;;;;5036719;28;19975;-76
2022/04/11 00:18:29;;;;;;;;;;;3.10;99.90;;;;;;5036638;28;19967;-75
2022/04/11 00:20:54;;;;;;;;;;;3.10;99.90;;;;;;5036302;28;20007;-75
2022/04/11 00:23:20;;;;;;;;;;;3.00;99.90;;;;;;5015129;28;19928;-75
2022/04/11 00:25:45;;;;;;;;;;;3.00;99.90;;;;;;5025830;28;19996;-75
2022/04/11 00:28:11;;;;;;;;;;;2.90;99.90;;;;;;5004737;28;19947;-75
2022/04/11 00:30:37;;;;;;;;;;;2.80;99.90;;;;;;5016635;28;19921;-75
2022/04/11 00:33:02;;;;;;;;;;;2.80;99.90;;;;;;5036368;28;19920;-75
2022/04/11 00:35:28;;;;;;;;;;;2.80;99.90;;;;;;5036595;28;19920;-77
2022/04/11 00:37:53;;;;;;;;;;;2.70;99.90;;;;;;5035381;28;19921;-75
2022/04/11 00:40:19;;;;;;;;;;;2.70;99.90;;;;;;5034749;28;19927;-75
2022/04/11 00:42:47;;;;;;;;;;;2.70;99.90;;;;;;5020049;28;20004;-75
2022/04/11 00:45:13;;;;;;;;;;;2.70;99.90;;;;;;5037952;28;19921;-75
2022/04/11 00:47:39;;;;;;;;;;;2.60;99.90;;;;;;5016994;28;19924;-76
2022/04/11 00:50:06;;;;;;;;;;;2.60;99.90;;;;;;5031176;28;19925;-75
2022/04/11 00:52:32;;;;;;;;;;;2.60;99.90;;;;;;5012731;28;19943;-75
2022/04/11 00:54:58;;;;;;;;;;;2.50;99.90;;;;;;5019367;28;19920;-75
2022/04/11 00:57:24;;;;;;;;;;;2.50;99.90;;;;;;5035176;28;19920;-74
2022/04/11 00:59:49;;;;;;;;;;;2.40;99.90;;;;;;5027107;28;20392;-75
2022/04/11 01:02:15;;;;;;;;;;;2.50;99.90;;;;;;5011255;28;19921;-75
2022/04/11 01:04:41;;;;;;;;;;;2.60;99.90;;;;;;5017165;28;20292;-74
2022/04/11 01:07:09;;;;;;;;;;;2.60;99.90;;;;;;5036294;28;19921;-75
2022/04/11 01:09:35;;;;;;;;;;;2.50;99.90;;;;;;5021143;28;19928;-75
2022/04/11 01:12:01;;;;;;;;;;;2.60;99.90;;;;;;5031822;28;19920;-75
2022/04/11 01:14:27;;;;;;;;;;;2.60;99.90;;;;;;5018982;28;19921;-75
2022/04/11 01:16:53;;;;;;;;;;;2.50;99.90;;;;;;5035418;28;20318;-75
2022/04/11 01:19:19;;;;;;;;;;;2.40;99.90;;;;;;5030070;28;19920;-75
2022/04/11 01:21:47;;;;;;;;;;;2.30;99.90;;;;;;5035365;28;19928;-75
2022/04/11 01:24:13;;;;;;;;;;;2.30;99.90;;;;;;5035851;28;19921;-75
2022/04/11 01:26:39;;;;;;;;;;;2.30;99.90;;;;;;5053235;28;19966;-76
2022/04/11 01:29:08;;;;;;;;;;;2.20;99.90;;;;;;5002237;28;19925;-75
2022/04/11 01:31:34;;;;;;;;;;;2.10;99.90;;;;;;5027758;28;19920;-75
2022/04/11 01:33:59;;;;;;;;;;;2.20;99.90;;;;;;5014199;28;19936;-76
2022/04/11 01:36:25;;;;;;;;;;;2.20;99.90;;;;;;5029017;28;19921;-75
2022/04/11 01:38:50;;;;;;;;;;;2.20;99.90;;;;;;5052302;28;19924;-75
2022/04/11 01:41:16;;;;;;;;;;;2.10;99.90;;;;;;5036014;28;19967;-75
2022/04/11 01:43:42;;;;;;;;;;;2.20;99.90;;;;;;5052602;28;19925;-74
2022/04/11 01:46:07;;;;;;;;;;;2.10;99.90;;;;;;5017737;28;19920;-75
2022/04/11 01:48:33;;;;;;;;;;;2.20;99.90;;;;;;5028814;28;19921;-75
2022/04/11 01:50:58;;;;;;;;;;;2.10;99.90;;;;;;5011993;28;20357;-75
2022/04/11 01:53:24;;;;;;;;;;;2.20;99.90;;;;;;5018497;28;20015;-75
2022/04/11 01:55:49;;;;;;;;;;;2.10;99.90;;;;;;5034720;28;19920;-75
2022/04/11 01:58:15;;;;;;;;;;;2.10;99.90;;;;;;5034252;28;19928;-75
2022/04/11 02:00:41;;;;;;;;;;;2.00;99.90;;;;;;5034009;28;20262;-75
2022/04/11 02:03:07;;;;;;;;;;;2.10;99.90;;;;;;5048102;28;20370;-76
2022/04/11 02:05:33;;;;;;;;;;;2.20;99.90;;;;;;5019349;28;19999;-76
2022/04/11 02:07:59;;;;;;;;;;;2.20;99.90;;;;;;5017104;28;19928;-75
2022/04/11 02:10:25;;;;;;;;;;;2.20;99.90;;;;;;5033927;28;19924;-76
2022/04/11 02:12:51;;;;;;;;;;;2.20;99.90;;;;;;5034450;28;20414;-74
2022/04/11 02:15:17;;;;;;;;;;;2.20;99.90;;;;;;5034415;28;19928;-75
2022/04/11 02:17:43;;;;;;;;;;;2.20;99.90;;;;;;5034268;28;20356;-75
2022/04/11 02:20:09;;;;;;;;;;;2.20;99.90;;;;;;5032313;28;20281;-75
2022/04/11 02:22:45;;;;;;;;;;;2.10;99.90;;;;;;5033651;28;20361;-75
2022/04/11 02:25:11;;;;;;;;;;;2.10;99.90;;;;;;5017911;28;19979;-75
2022/04/11 02:27:36;;;;;;;;;;;2.10;99.90;;;;;;5034259;28;19968;-75
2022/04/11 02:30:02;;;;;;;;;;;2.10;99.90;;;;;;5014772;28;20011;-75
2022/04/11 02:32:28;;;;;;;;;;;2.10;99.90;;;;;;5051937;28;20359;-81
2022/04/11 02:34:54;;;;;;;;;;;2.10;99.90;;;;;;5034246;28;20144;-75
2022/04/11 02:37:19;;;;;;;;;;;2.00;99.90;;;;;;5026263;28;20392;-75
2022/04/11 02:39:45;;;;;;;;;;;2.10;99.90;;;;;;5029354;28;19920;-76
2022/04/11 02:42:10;;;;;;;;;;;2.10;99.90;;;;;;4992435;28;19996;-75
2022/04/11 02:44:36;;;;;;;;;;;2.10;99.90;;;;;;4993645;28;1103606;-75
2022/04/11 02:47:01;;;;;;;;;;;2.10;99.90;;;;;;5032941;28;20051;-75
2022/04/11 02:49:27;;;;;;;;;;;2.20;99.90;;;;;;4992259;28;19921;-75
2022/04/11 02:51:52;;;;;;;;;;;2.30;99.90;;;;;;5028027;28;20007;-75
2022/04/11 02:54:18;;;;;;;;;;;2.30;99.90;;;;;;5034563;28;19920;-75
2022/04/11 02:56:44;;;;;;;;;;;2.30;99.90;;;;;;5034246;28;19920;-75
2022/04/11 02:59:09;;;;;;;;;;;2.30;99.90;;;;;;5042790;28;20324;-75
2022/04/11 03:01:35;;;;;;;;;;;2.30;99.90;;;;;;5018143;28;19925;-75
2022/04/11 03:04:00;;;;;;;;;;;2.30;99.90;;;;;;5006545;28;19921;-75
2022/04/11 03:06:26;;;;;;;;;;;2.30;99.90;;;;;;5033252;28;20342;-75
2022/04/11 03:08:51;;;;;;;;;;;2.30;99.90;;;;;;5023975;28;19921;-75
2022/04/11 03:11:17;;;;;;;;;;;2.30;99.90;;;;;;4983586;28;19920;-76
2022/04/11 03:13:42;;;;;;;;;;;2.30;99.90;;;;;;5034516;28;19924;-75
2022/04/11 03:16:08;;;;;;;;;;;2.40;99.90;;;;;;5046408;28;19983;-75
2022/04/11 03:18:34;;;;;;;;;;;2.40;99.90;;;;;;5029741;28;19928;-81
2022/04/11 03:20:59;;;;;;;;;;;2.50;99.90;;;;;;5037121;28;20416;-75
2022/04/11 03:23:25;;;;;;;;;;;2.60;99.90;;;;;;5037515;28;20010;-75
2022/04/11 03:25:51;;;;;;;;;;;2.70;99.90;;;;;;5021723;28;19928;-75
2022/04/11 03:28:16;;;;;;;;;;;2.80;99.90;;;;;;5032226;28;19995;-75
2022/04/11 03:30:42;;;;;;;;;;;2.90;99.90;;;;;;5032496;28;20029;-75
2022/04/11 03:33:07;;;;;;;;;;;2.80;99.90;;;;;;5055731;28;19943;-74
2022/04/11 03:35:33;;;;;;;;;;;2.90;99.90;;;;;;5021063;28;19927;-78
2022/04/11 03:37:58;;;;;;;;;;;2.90;99.90;;;;;;5029348;28;19921;-75
2022/04/11 03:40:24;;;;;;;;;;;2.90;99.90;;;;;;5026993;28;19925;-74
2022/04/11 03:42:49;;;;;;;;;;;3.00;99.90;;;;;;5019933;28;20842;-77
2022/04/11 03:45:15;;;;;;;;;;;3.00;99.90;;;;;;5027816;28;20010;-75
2022/04/11 03:47:41;;;;;;;;;;;2.90;99.90;;;;;;5037343;28;20016;-75
2022/04/11 03:50:07;;;;;;;;;;;3.00;99.90;;;;;;5017693;28;19921;-75
2022/04/11 03:52:32;;;;;;;;;;;2.90;99.90;;;;;;5035325;28;20396;-75
2022/04/11 03:54:58;;;;;;;;;;;3.00;99.90;;;;;;5030739;28;19921;-75
2022/04/11 03:57:24;;;;;;;;;;;2.90;99.90;;;;;;5037532;28;20258;-75
2022/04/11 03:59:49;;;;;;;;;;;3.00;99.90;;;;;;5013502;28;19928;-75
2022/04/11 04:02:15;;;;;;;;;;;3.00;99.90;;;;;;5013248;28;19921;-75
2022/04/11 04:04:40;;;;;;;;;;;3.10;99.90;;;;;;5018896;28;19920;-75
2022/04/11 04:07:06;;;;;;;;;;;3.20;99.90;;;;;;5020522;28;19921;-75
2022/04/11 04:09:32;;;;;;;;;;;3.10;99.90;;;;;;5037138;28;19928;-75
2022/04/11 04:11:57;;;;;;;;;;;3.10;99.90;;;;;;5043873;28;20121;-75
2022/04/11 04:14:23;;;;;;;;;;;3.10;99.90;;;;;;5020274;28;19986;-75
2022/04/11 04:16:49;;;;;;;;;;;3.00;99.90;;;;;;5037180;28;19921;-75
2022/04/11 04:19:14;;;;;;;;;;;3.00;99.90;;;;;;5036599;28;19944;-75
2022/04/11 04:21:40;;;;;;;;;;;3.00;99.90;;;;;;5016857;28;19928;-80
2022/04/11 04:24:06;;;;;;;;;;;3.00;99.90;;;;;;5018591;28;20009;-75
2022/04/11 04:26:31;;;;;;;;;;;3.00;99.90;;;;;;5036488;28;19928;-75
2022/04/11 04:28:57;;;;;;;;;;;3.00;99.90;;;;;;5020258;28;19925;-75
2022/04/11 04:31:22;;;;;;;;;;;3.00;99.90;;;;;;5022112;28;19952;-76
2022/04/11 04:33:48;;;;;;;;;;;3.10;99.90;;;;;;5004766;28;19925;-75
2022/04/11 04:36:13;;;;;;;;;;;3.10;99.90;;;;;;5026337;28;20007;-76
2022/04/11 04:38:39;;;;;;;;;;;3.20;99.90;;;;;;5036493;28;19966;-75
2022/04/11 04:41:04;;;;;;;;;;;3.20;99.90;;;;;;5020131;28;20321;-75
2022/04/11 04:43:30;;;;;;;;;;;3.20;99.90;;;;;;5006939;28;19921;-76
2022/04/11 04:45:56;;;;;;;;;;;3.10;99.90;;;;;;5036327;28;19920;-75
2022/04/11 04:48:21;;;;;;;;;;;3.20;99.90;;;;;;5034364;28;19928;-75
2022/04/11 04:50:47;;;;;;;;;;;3.30;99.90;;;;;;5017074;28;20004;-75
2022/04/11 04:53:12;;;;;;;;;;;3.20;99.90;;;;;;5036565;28;20320;-79
2022/04/11 04:55:38;;;;;;;;;;;3.30;99.90;;;;;;5015774;28;19921;-80
2022/04/11 04:58:04;;;;;;;;;;;3.20;99.90;;;;;;5035679;28;19921;-75
2022/04/11 05:00:30;;;;;;;;;;;3.30;99.90;;;;;;5032632;28;19925;-75
2022/04/11 05:02:55;;;;;;;;;;;3.30;99.90;;;;;;5018725;28;20205;-75
2022/04/11 05:05:21;;;;;;;;;;;3.30;99.90;;;;;;5035665;28;19921;-75
2022/04/11 05:07:46;;;;;;;;;;;3.40;99.90;;;;;;5036011;28;20381;-75
2022/04/11 05:10:12;;;;;;;;;;;3.40;99.90;;;;;;5033461;28;19944;-75
2022/04/11 05:12:41;;;;;;;;;;;3.50;99.90;;;;;;5009021;28;19974;-75
2022/04/11 05:15:07;;;;;;;;;;;3.50;99.90;;;;;;5053258;28;20019;-75
2022/04/11 05:17:33;;;;;;;;;;;3.50;99.90;;;;;;5008762;28;20015;-75
2022/04/11 05:19:59;;;;;;;;;;;3.60;99.90;;;;;;5035326;28;19928;-75
2022/04/11 05:22:24;;;;;;;;;;;3.70;99.90;;;;;;5019115;28;19924;-75
2022/04/11 05:24:50;;;;;;;;;;;3.80;99.90;;;;;;5035114;28;19928;-76
2022/04/11 05:27:15;;;;;;;;;;;3.80;99.90;;;;;;5022290;28;19972;-76
2022/04/11 05:29:41;;;;;;;;;;;3.60;99.90;;;;;;5012733;28;20361;-75
2022/04/11 05:32:07;;;;;;;;;;;3.70;99.90;;;;;;5017745;28;19932;-76
2022/04/11 05:34:32;;;;;;;;;;;3.80;99.90;;;;;;4999661;28;19921;-82
2022/04/11 05:36:58;;;;;;;;;;;3.80;99.90;;;;;;5014789;28;20015;-76
2022/04/11 05:39:24;;;;;;;;;;;3.90;99.90;;;;;;5028919;28;19921;-75
2022/04/11 05:41:49;;;;;;;;;;;3.90;99.90;;;;;;4995481;28;19967;-76
2022/04/11 05:44:16;;;;;;;;;;;4.00;99.90;;;;;;5027172;28;19928;-75
2022/04/11 05:46:41;;;;;;;;;;;4.00;99.90;;;;;;5033691;28;19924;-75
2022/04/11 05:49:07;;;;;;;;;;;4.00;99.90;;;;;;5028067;28;19927;-75
2022/04/11 05:51:32;;;;;;;;;;;4.00;99.90;;;;;;5034770;28;19921;-75
2022/04/11 05:53:58;;;;;;;;;;;4.10;99.90;;;;;;5052875;28;19928;-75
2022/04/11 05:56:23;;;;;;;;;;;4.10;99.90;;;;;;5035584;28;20003;-75
2022/04/11 05:58:49;;;;;;;;;;;4.20;99.90;;;;;;5034835;28;20007;-81
2022/04/11 06:01:15;;;;;;;;;;;4.20;99.90;;;;;;5037488;28;19924;-75
2022/04/11 06:03:40;;;;;;;;;;;4.30;99.90;;;;;;5018909;28;20381;-77
2022/04/11 06:06:06;;;;;;;;;;;4.30;99.90;;;;;;5034587;28;19921;-75
2022/04/11 06:08:31;;;;;;;;;;;4.30;99.90;;;;;;5013213;28;19956;-77
2022/04/11 06:10:57;;;;;;;;;;;4.40;99.90;;;;;;5030786;28;20361;-76
2022/04/11 06:13:22;;;;;;;;;;;4.40;99.90;;;;;;5026541;28;19961;-76
2022/04/11 06:15:48;;;;;;;;;;;4.50;99.90;;;;;;5014965;28;19920;-76
2022/04/11 06:18:13;;;;;;;;;;;4.60;99.90;;;;;;5052333;28;19927;-77
2022/04/11 06:20:39;;;;;;;;;;;4.60;99.90;;;;;;5034308;28;19994;-76
2022/04/11 06:23:05;;;;;;;;;;;4.70;99.90;;;;;;5034122;28;20008;-77
2022/04/11 06:25:30;;;;;;;;;;;4.70;99.90;;;;;;5052628;28;19920;-77
2022/04/11 06:27:56;;;;;;;;;;;4.80;99.90;;;;;;5033972;28;19928;-77
2022/04/11 06:30:21;;;;;;;;;;;4.80;99.90;;;;;;5034830;28;19921;-78
2022/04/11 06:32:47;;;;;;;;;;;4.90;99.90;;;;;;5042048;28;20285;-77
2022/04/11 06:35:12;;;;;;;;;;;5.00;99.90;;;;;;5033749;28;19935;-77
2022/04/11 06:37:38;;;;;;;;;;;5.00;99.90;;;;;;5032662;28;19921;-76
2022/04/11 06:40:04;;;;;;;;;;;5.00;99.90;;;;;;5034288;28;19921;-81
2022/04/11 06:42:30;;;;;;;;;;;5.10;99.90;;;;;;5020531;28;20425;-77
2022/04/11 06:44:55;;;;;;;;;;;5.20;99.90;;;;;;5034635;28;20054;-78
2022/04/11 06:47:24;;;;;;;;;;;5.20;99.90;;;;;;5034666;28;20819;-77
2022/04/11 06:49:50;;;;;;;;;;;5.30;99.90;;;;;;5034712;28;19971;-79
2022/04/11 06:52:16;;;;;;;;;;;5.40;99.90;;;;;;5034107;28;19955;-81
2022/04/11 06:54:41;;;;;;;;;;;5.40;99.90;;;;;;5035693;28;19921;-77
2022/04/11 06:57:07;;;;;;;;;;;5.50;99.90;;;;;;5021648;28;20405;-77
2022/04/11 06:59:32;;;;;;;;;;;5.60;99.90;;;;;;5035455;28;19928;-77
2022/04/11 07:01:58;;;;;;;;;;;5.70;99.90;;;;;;5020902;28;20007;-77
2022/04/11 07:04:24;;;;;;;;;;;5.80;99.90;;;;;;5005320;28;19924;-78
2022/04/11 07:06:49;;;;;;;;;;;5.90;99.90;;;;;;5037894;28;20012;-77
2022/04/11 07:09:15;;;;;;;;;;;5.90;99.90;;;;;;5021773;28;20293;-77
2022/04/11 07:11:41;;;;;;;;;;;6.00;99.90;;;;;;5035961;28;20426;-78
2022/04/11 07:14:07;;;;;;;;;;;6.10;99.90;;;;;;5021542;28;19927;-77
2022/04/11 07:16:32;;;;;;;;;;;6.20;99.90;;;;;;5038121;28;19932;-78
2022/04/11 07:18:58;;;;;;;;;;;6.30;99.90;;;;;;5037599;28;19921;-82
2022/04/11 07:21:24;;;;;;;;;;;6.40;99.90;;;;;;5021276;28;19928;-77
2022/04/11 07:23:49;;;;;;;;;;;6.50;99.90;;;;;;5037586;28;19925;-78
2022/04/11 07:26:15;;;;;;;;;;;6.60;99.90;;;;;;5037493;28;19975;-78
2022/04/11 07:28:41;;;;;;;;;;;6.70;99.90;;;;;;5037154;28;20289;-77
2022/04/11 07:31:07;;;;;;;;;;;6.80;99.90;;;;;;5037482;28;19959;-77
2022/04/11 07:33:32;;;;;;;;;;;6.90;99.90;;;;;;5037718;28;19927;-77
2022/04/11 07:35:58;;;;;;;;;;;7.00;99.90;;;;;;5037021;28;20011;-77
2022/04/11 07:38:23;;;;;;;;;;;7.10;99.90;;;;;;5033178;28;19970;-77
2022/04/11 07:40:49;;;;;;;;;;;7.20;99.90;;;;;;5020174;28;19920;-77
2022/04/11 07:43:14;;;;;;;;;;;7.30;99.90;;;;;;5054438;28;19924;-77
2022/04/11 07:45:40;;;;;;;;;;;7.30;99.90;;;;;;5037417;28;19983;-77
2022/04/11 07:48:06;;;;;;;;;;;7.40;99.90;;;;;;5036125;28;19924;-77
2022/04/11 07:50:32;;;;;;;;;;;7.50;99.90;;;;;;5036373;28;20372;-77
2022/04/11 07:52:57;;;;;;;;;;;7.60;99.90;;;;;;5037256;28;19921;-78
2022/04/11 07:55:26;;;;;;;;;;;7.60;99.90;;;;;;5036557;28;19928;-77
2022/04/11 07:57:53;;;;;;;;;;;7.60;99.90;;;;;;5036939;28;19944;-77
2022/04/11 08:00:19;;;;;;;;;;;7.70;99.90;;;;;;5032929;28;19921;-78
2022/04/11 08:02:44;;;;;;;;;;;7.80;99.90;;;;;;5019687;28;20258;-76
2022/04/11 08:05:10;;;;;;;;;;;7.90;99.90;;;;;;5016008;28;20006;-77
2022/04/11 08:07:36;;;;;;;;;;;8.00;99.90;;;;;;5019427;28;19923;-76
2022/04/11 08:10:06;;;;;;;;;;;8.00;99.90;;;;;;5033512;28;19929;-77
2022/04/11 08:12:32;;;;;;;;;;;8.10;99.90;;;;;;5014407;28;19921;-77
2022/04/11 08:14:57;;;;;;;;;;;8.20;99.90;;;;;;5036726;28;19917;-77
2022/04/11 08:17:23;;;;;;;;;;;8.20;99.90;;;;;;5017061;28;19925;-77
2022/04/11 08:19:49;;;;;;;;;;;8.40;99.90;;;;;;5000231;28;19917;-77
2022/04/11 08:22:14;;;;;;;;;;;8.40;99.90;;;;;;5045807;28;19979;-76
2022/04/11 08:24:40;;;;;;;;;;;8.50;99.90;;;;;;5022696;28;19925;-77
2022/04/11 08:27:06;;;;;;;;;;;8.50;99.90;;;;;;5015816;28;20281;-78
2022/04/11 08:29:31;;;;;;;;;;;8.50;99.90;;;;;;5029148;28;19920;-77
2022/04/11 08:31:57;;;;;;;;;;;8.50;99.90;;;;;;5018570;28;19972;-77
2022/04/11 08:34:22;;;;;;;;;;;8.50;99.90;;;;;;5017871;28;19974;-78
2022/04/11 08:36:48;;;;;;;;;;;8.50;99.90;;;;;;5032459;28;20361;-78
2022/04/11 08:39:14;;;;;;;;;;;8.60;99.90;;;;;;5020045;28;19964;-77
2022/04/11 08:41:40;;;;;;;;;;;8.70;99.90;;;;;;5036274;28;19921;-77
2022/04/11 08:44:06;;;;;;;;;;;8.80;99.90;;;;;;4992932;28;19920;-77
2022/04/11 08:46:33;;;;;;;;;;;8.80;99.90;;;;;;5035838;28;20361;-76
2022/04/11 08:48:59;;;;;;;;;;;9.00;99.90;;;;;;5001035;28;19928;-77
2022/04/11 08:51:25;;;;;;;;;;;9.10;99.90;;;;;;5036251;28;19920;-78
2022/04/11 08:53:52;;;;;;;;;;;9.20;99.90;;;;;;5019696;28;20361;-74
2022/04/11 08:56:17;;;;;;;;;;;9.30;99.90;;;;;;5034680;28;20412;-79
2022/04/11 08:58:43;;;;;;;;;;;9.40;99.90;;;;;;5035041;28;20062;-78
2022/04/11 09:01:08;;;;;;;;;;;9.60;99.90;;;;;;5017849;28;20278;-84
2022/04/11 09:03:34;;;;;;;;;;;9.60;99.90;;;;;;5034371;28;19917;-78
2022/04/11 09:06:03;;;;;;;;;;;9.60;99.90;;;;;;5032110;28;20026;-79
2022/04/11 09:08:47;;;;;;;;;;;9.70;99.90;;;;;;5030024;28;20388;-78
2022/04/11 09:11:12;;;;;;;;;;;9.80;99.90;;;;;;5011395;28;20408;-79
2022/04/11 09:13:51;;;;;;;;;;;9.90;99.90;;;;;;5025637;28;19942;-79
2022/04/11 09:16:17;;;;;;;;;;;10.00;99.90;;;;;;5034807;28;20046;-79
2022/04/11 09:18:47;;;;;;;;;;;10.10;99.90;;;;;;5033241;28;20003;-79
2022/04/11 09:21:12;;;;;;;;;;;10.20;99.90;;;;;;5017849;28;19967;-80
2022/04/11 09:23:38;;;;;;;;;;;10.30;99.90;;;;;;5034382;28;19959;-79
2022/04/11 09:26:16;;;;;;;;;;;10.40;99.90;;;;;;5048186;28;20027;-79
2022/04/11 09:28:41;;;;;;;;;;;10.50;99.90;;;;;;5034782;28;19944;-79
2022/04/11 09:31:07;;;;;;;;;;;10.60;99.90;;;;;;5051975;28;20024;-79
2022/04/11 09:33:39;;;;;;;;;;;10.70;99.90;;;;;;5017112;28;19921;-80
2022/04/11 09:36:05;;;;;;;;;;;10.80;99.90;;;;;;5017136;28;19925;-79
2022/04/11 09:38:35;;;;;;;;;;;10.90;99.90;;;;;;5033644;28;19924;-80
2022/04/11 09:41:02;;;;;;;;;;;11.00;99.90;;;;;;5034045;28;20401;-79
2022/04/11 09:43:28;;;;;;;;;;;11.20;99.90;;;;;;5033373;28;20349;-80
2022/04/11 09:45:54;;;;;;;;;;;11.20;99.90;;;;;;5033819;28;19931;-80
2022/04/11 09:48:21;;;;;;;;;;;11.30;99.90;;;;;;5032941;28;19921;-80
2022/04/11 09:50:47;;;;;;;;;;;11.40;99.90;;;;;;5033530;28;20300;-79
2022/04/11 09:53:16;;;;;;;;;;;11.40;99.90;;;;;;5032898;28;20376;-79
2022/04/11 09:55:43;;;;;;;;;;;11.60;99.90;;;;;;5033059;28;20379;-79
2022/04/11 09:58:08;;;;;;;;;;;11.60;99.90;;;;;;5034222;28;19943;-79
2022/04/11 10:00:35;;;;;;;;;;;11.70;99.90;;;;;;5033256;28;20689;-80
2022/04/11 10:03:01;;;;;;;;;;;11.80;99.90;;;;;;5016141;28;20286;-80
2022/04/11 10:05:27;;;;;;;;;;;11.80;99.90;;;;;;5033024;28;19920;-78
2022/04/11 10:07:56;;;;;;;;;;;12.00;99.90;;;;;;5021512;28;20450;-79
2022/04/11 10:10:22;;;;;;;;;;;12.10;99.90;;;;;;5033531;28;19928;-78
2022/04/11 10:12:48;;;;;;;;;;;12.10;99.90;;;;;;5033688;28;19951;-78
2022/04/11 10:15:14;;;;;;;;;;;12.20;99.90;;;;;;5017466;28;19924;-79
2022/04/11 10:17:40;;;;;;;;;;;12.20;99.90;;;;;;5017670;28;19935;-81
2022/04/11 10:20:06;;;;;;;;;;;12.40;99.90;;;;;;5034931;28;19968;-79
2022/04/11 10:22:37;;;;;;;;;;;12.50;99.90;;;;;;5033994;28;19986;-79
2022/04/11 10:25:04;;;;;;;;;;;12.50;99.90;;;;;;5033038;28;19924;-80
2022/04/11 10:27:30;;;;;;;;;;;12.70;99.90;;;;;;5007251;28;19928;-78
2022/04/11 10:29:56;;;;;;;;;;;12.80;99.90;;;;;;5030303;28;19920;-79
2022/04/11 10:32:24;;;;;;;;;;;12.90;99.90;;;;;;5002832;28;19924;-80
2022/04/11 10:34:51;;;;;;;;;;;13.00;99.90;;;;;;5032131;28;19921;-79
2022/04/11 10:37:17;;;;;;;;;;;13.10;99.90;;;;;;5030713;28;19925;-79
2022/04/11 10:39:44;;;;;;;;;;;13.20;99.90;;;;;;5054165;28;19921;-79
2022/04/11 10:42:11;;;;;;;;;;;13.20;99.90;;;;;;5037491;28;19978;-77
2022/04/11 10:44:41;;;;;;;;;;;13.40;99.90;;;;;;5037872;28;20007;-77
2022/04/11 10:47:10;;;;;;;;;;;13.50;99.20;;;;;;5020240;28;19924;-79
2022/04/11 10:49:45;;;;;;;;;;;13.60;98.80;;;;;;5037163;28;19978;-80
2022/04/11 10:52:30;;;;;;;;;;;13.80;99.80;;;;;;5021446;28;19975;-78
2022/04/11 10:54:57;;;;;;;;;;;14.00;98.40;;;;;;5016987;28;20368;-78
2022/04/11 10:57:50;;;;;;;;;;;14.20;97.40;;;;;;5020000;28;19921;-81
2022/04/11 11:00:20;;;;;;;;;;;14.30;97.20;;;;;;5026033;28;19924;-82
2022/04/11 11:02:48;;;;;;;;;;;14.50;96.20;;;;;;5034871;28;20419;-79
2022/04/11 11:05:26;;;;;;;;;;;14.60;95.80;;;;;;5028335;28;19925;-85
2022/04/11 11:08:11;;;;;;;;;;;14.70;94.70;;;;;;5034275;28;20376;-81
2022/04/11 11:10:50;;;;;;;;;;;14.90;94.20;;;;;;5024419;28;20424;-78
2022/04/11 11:13:28;;;;;;;;;;;15.00;93.30;;;;;;5055492;28;19924;-83
2022/04/11 11:15:58;;;;;;;;;;;15.20;93.10;;;;;;5035232;28;19917;-80
2022/04/11 11:18:24;;;;;;;;;;;15.30;91.10;;;;;;5021494;28;19928;-80
2022/04/11 11:20:54;;;;;;;;;;;15.40;91.10;;;;;;5037382;28;19920;-79
2022/04/11 11:23:27;;;;;;;;;;;15.60;91.00;;;;;;5055075;28;19920;-78
2022/04/11 11:25:54;;;;;;;;;;;15.80;90.40;;;;;;5037052;28;19929;-78
2022/04/11 11:28:20;;;;;;;;;;;16.00;89.80;;;;;;5030743;28;19924;-77
2022/04/11 11:30:45;;;;;;;;;;;16.20;89.40;;;;;;5003118;28;19947;-79
2022/04/11 11:33:17;;;;;;;;;;;16.20;84.60;;;;;;5019762;28;19961;-84
2022/04/11 11:35:50;;;;;;;;;;;16.50;86.60;;;;;;5024208;28;19931;-85
2022/04/11 11:38:20;;;;;;;;;;;16.80;86.20;;;;;;5031714;28;19928;-81
2022/04/11 11:40:53;;;;;;;;;;;17.00;83.80;;;;;;5035677;28;19925;-81
2022/04/11 11:43:19;;;;;;;;;;;17.30;82.60;;;;;;5036049;28;20491;-81
2022/04/11 11:45:45;;;;;;;;;;;17.40;80.20;;;;;;5022893;28;19921;-81
2022/04/11 11:48:23;;;;;;;;;;;17.70;79.50;;;;;;5020208;28;19921;-81
2022/04/11 11:50:49;;;;;;;;;;;17.90;78.00;;;;;;5035377;28;20391;-82
2022/04/11 11:53:15;;;;;;;;;;;17.90;76.20;;;;;;5036222;28;19925;-81
2022/04/11 11:56:10;;;;;;;;;;;18.00;76.80;;;;;;5018627;28;19921;-79
2022/04/11 11:58:37;;;;;;;;;;;18.30;75.80;;;;;;5014701;28;19921;-78
2022/04/11 12:01:03;;;;;;;;;;;18.40;70.40;;;;;;5035058;28;20288;-78
2022/04/11 12:06:13;;;;;;;;;;;18.70;71.20;;;;;;5034962;28;20373;-78
2022/04/11 12:08:39;;;;;;;;;;;18.90;70.30;;;;;;5031691;28;19925;-78
2022/04/11 12:11:04;;;;;;;;;;;19.10;70.30;;;;;;5035157;28;19924;-78
2022/04/11 12:13:31;;;;;;;;;;;19.20;69.50;;;;;;5019009;28;20327;-78
2022/04/11 12:16:07;;;;;;;;;;;19.40;69.70;;;;;;5019246;28;19924;-78
2022/04/11 12:18:48;;;;;;;;;;;19.70;67.90;;;;;;5035101;28;19921;-76
2022/04/11 12:21:13;;;;;;;;;;;19.90;66.20;;;;;;5035065;28;19927;-79
2022/04/11 12:23:47;;;;;;;;;;;20.10;65.90;;;;;;5021219;28;20281;-82
2022/04/11 12:26:13;;;;;;;;;;;20.10;65.40;;;;;;5035257;28;19952;-77
2022/04/11 12:28:38;;;;;;;;;;;20.20;64.40;;;;;;5035712;28;20018;-81
2022/04/11 12:31:07;;;;;;;;;;;20.30;62.80;;;;;;5035940;28;19927;-77
2022/04/11 12:33:43;;;;;;;;;;;20.20;62.70;;;;;;5035368;28;19920;-80
2022/04/11 12:36:09;;;;;;;;;;;20.40;62.90;;;;;;5018168;28;19955;-79
2022/04/11 12:38:38;;;;;;;;;;;20.40;61.70;;;;;;5033284;28;20361;-80
2022/04/11 12:41:04;;;;;;;;;;;20.60;61.30;;;;;;5034445;28;20004;-80
2022/04/11 12:43:29;;;;;;;;;;;20.70;60.60;;;;;;5030927;28;19999;-79
2022/04/11 12:46:05;;;;;;;;;;;20.90;60.10;;;;;;5035180;28;19932;-79
2022/04/11 12:48:51;;;;;;;;;;;21.10;58.80;;;;;;5027967;28;19924;-80
2022/04/11 12:51:16;;;;;;;;;;;21.20;57.90;;;;;;5034604;28;19924;-79
2022/04/11 12:53:42;;;;;;;;;;;21.30;57.70;;;;;;5034386;28;19927;-77
2022/04/11 12:56:08;;;;;;;;;;;21.30;55.20;;;;;;5034662;28;19921;-77
2022/04/11 12:58:37;;;;;;;;;;;21.40;57.10;;;;;;5051883;28;20397;-79
2022/04/11 13:01:02;;;;;;;;;;;21.30;54.80;;;;;;5034928;28;20301;-79
2022/04/11 13:03:30;;;;;;;;;;;21.50;55.20;;;;;;5024461;28;19921;-80
2022/04/11 13:05:57;;;;;;;;;;;21.60;54.60;;;;;;5034566;28;19925;-80
2022/04/11 13:08:26;;;;;;;;;;;21.70;56.60;;;;;;5018338;28;19921;-80
2022/04/11 13:10:52;;;;;;;;;;;21.90;54.70;;;;;;5017572;28;19925;-81
2022/04/11 13:13:17;;;;;;;;;;;22.20;53.50;;;;;;5035251;28;19928;-80
2022/04/11 13:18:27;;;;;;;;;;;22.00;50.30;;;;;;5021894;28;19943;-78
2022/04/11 13:20:53;;;;;;;;;;;22.30;50.80;;;;;;5035427;28;20380;-79
2022/04/11 13:23:19;;;;;;;;;;;22.50;51.20;;;;;;5032817;28;19921;-79
2022/04/11 13:25:45;;;;;;;;;;;22.90;52.40;;;;;;5019482;28;19931;-78
2022/04/11 13:28:10;;;;;;;;;;;23.10;51.00;;;;;;5006957;28;19924;-79
2022/04/11 13:30:36;;;;;;;;;;;23.10;49.40;;;;;;5009578;28;20000;-79
2022/04/11 13:33:02;;;;;;;;;;;23.20;50.20;;;;;;5021938;28;19925;-80
2022/04/11 13:35:28;;;;;;;;;;;23.20;49.70;;;;;;5032871;28;20353;-83
2022/04/11 13:37:53;;;;;;;;;;;23.40;48.50;;;;;;5019848;28;19928;-79
2022/04/11 13:40:19;;;;;;;;;;;23.70;50.20;;;;;;5014360;28;20422;-79
2022/04/11 13:42:45;;;;;;;;;;;23.90;49.20;;;;;;5034160;28;19970;-79
2022/04/11 13:45:10;;;;;;;;;;;24.30;48.90;;;;;;5023776;28;20315;-82
2022/04/11 13:47:36;;;;;;;;;;;24.60;48.80;;;;;;5018192;28;19921;-79
2022/04/11 13:50:02;;;;;;;;;;;24.90;47.60;;;;;;5014384;28;20000;-80
2022/04/11 13:52:27;;;;;;;;;;;24.90;45.70;;;;;;5017972;28;20530;-89
2022/04/11 13:54:53;;;;;;;;;;;25.10;45.30;;;;;;5006450;28;19928;-83
2022/04/11 13:57:19;;;;;;;;;;;25.20;45.20;;;;;;5023641;28;19920;-75
2022/04/11 13:59:44;;;;;;;;;;;25.00;44.70;;;;;;5017822;28;19964;-78
2022/04/11 14:02:10;;;;;;;;;;;24.90;42.80;;;;;;5039843;28;19974;-80
2022/04/11 14:04:36;;;;;;;;;;;24.90;44.20;;;;;;5014675;28;20005;-81
2022/04/11 14:07:01;;;;;;;;;;;25.10;43.10;;;;;;5030032;28;19929;-79
2022/04/11 14:09:27;;;;;;;;;;;25.50;44.40;;;;;;5023245;28;19931;-79
2022/04/11 14:11:53;;;;;;;;;;;25.60;43.30;;;;;;5033548;28;19921;-79
2022/04/11 14:14:18;;;;;;;;;;;25.40;41.30;;;;;;5021709;28;19964;-79
2022/04/11 14:16:44;;;;;;;;;;;25.60;41.40;;;;;;5000409;28;20386;-80
2022/04/11 14:19:09;;;;;;;;;;;25.70;41.20;;;;;;5000281;28;20389;-80
2022/04/11 14:21:35;;;;;;;;;;;25.80;41.30;;;;;;5017828;28;19925;-80
2022/04/11 14:24:00;;;;;;;;;;;26.00;41.70;;;;;;4984499;28;19927;-80
2022/04/11 14:26:26;;;;;;;;;;;26.40;42.20;;;;;;5025758;28;20772;-81
2022/04/11 14:28:52;;;;;;;;;;;26.50;41.00;;;;;;5018650;28;19932;-80